Time;durP1;ratioP1;P1;durP2;ratioP2;P2;SDS_P1;SDS_P2;PMS_P1;PMS_P2;Temp;Humidity;BMP_temperature;BMP_pressure;BME280_temperature;BME280_humidity;BME280_pressure;Samples;Min_cycle;Max_cycle;Signal;HPM_P1;HPM_P2
2022/12/07 00:01:25;;;;;;;12.27;9.27;;;;;;;5.43;82.59;101584.50;3579771;40;20100;-63
2022/12/07 00:03:56;;;;;;;11.65;9.52;;;;;;;5.15;82.45;101545.28;3577347;40;20067;-64
2022/12/07 00:06:23;;;;;;;18.30;9.05;;;;;;;5.36;83.03;101578.47;3579891;40;20052;-63
2022/12/07 00:08:49;;;;;;;12.18;8.88;;;;;;;5.32;82.73;101588.31;3578614;40;20059;-63
2022/12/07 00:11:19;;;;;;;14.95;9.50;;;;;;;5.28;82.61;101585.81;3577636;40;20072;-63
2022/12/07 00:13:47;;;;;;;10.93;8.82;;;;;;;4.93;82.94;101537.00;3579031;40;20096;-63
2022/12/07 00:16:19;;;;;;;12.77;9.50;;;;;;;5.13;83.06;101574.63;3577441;40;20312;-63
2022/12/07 00:18:45;;;;;;;11.73;9.52;;;;;;;4.91;82.91;101551.28;3579158;40;20048;-63
2022/12/07 00:21:23;;;;;;;13.68;8.77;;;;;;;5.08;83.15;101584.56;3576113;40;20057;-63
2022/12/07 00:23:52;;;;;;;12.93;9.25;;;;;;;5.06;83.65;101580.19;3578617;40;20402;-63
2022/12/07 00:26:23;;;;;;;11.52;8.88;;;;;;;5.04;83.23;101576.66;3578101;40;20337;-63
2022/12/07 00:28:52;;;;;;;13.70;9.48;;;;;;;5.00;83.37;101570.56;3575935;40;20070;-63
2022/12/07 00:31:22;;;;;;;12.90;9.68;;;;;;;4.97;83.28;101572.44;3579432;40;20052;-63
2022/12/07 00:33:49;;;;;;;14.07;9.52;;;;;;;4.94;83.45;101565.38;3578463;40;20056;-63
2022/12/07 00:36:19;;;;;;;14.80;9.40;;;;;;;4.93;83.85;101573.44;3579506;40;20126;-63
2022/12/07 00:38:45;;;;;;;13.65;9.23;;;;;;;4.63;84.05;101515.63;3578139;40;20060;-63
2022/12/07 00:41:18;;;;;;;11.48;9.55;;;;;;;4.95;83.78;101566.25;3579251;40;20284;-63
2022/12/07 00:43:46;;;;;;;10.52;8.75;;;;;;;4.63;83.95;101507.63;3579294;40;20052;-63
2022/12/07 00:46:13;;;;;;;12.75;9.02;;;;;;;4.95;83.99;101567.16;3579195;40;20052;-63
2022/12/07 00:48:40;;;;;;;13.30;9.18;;;;;;;4.91;83.91;101560.16;3579479;40;20117;-63
2022/12/07 00:51:07;;;;;;;11.35;9.02;;;;;;;4.93;83.76;101568.09;3578462;40;20299;-63
2022/12/07 00:53:37;;;;;;;12.57;10.18;;;;;;;4.94;84.03;101565.38;3578097;40;20057;-63
2022/12/07 00:56:11;;;;;;;12.13;8.65;;;;;;;4.93;83.68;101558.31;3577837;40;20470;-63
2022/12/07 00:58:36;;;;;;;13.77;8.85;;;;;;;4.96;83.76;101574.22;3579438;40;20145;-63
2022/12/07 01:01:05;;;;;;;14.68;10.35;;;;;;;4.91;83.42;101560.16;3578158;40;20064;-64
2022/12/07 01:03:31;;;;;;;14.85;10.15;;;;;;;4.93;83.59;101560.13;3578642;40;20129;-63
2022/12/07 01:05:58;;;;;;;12.55;9.40;;;;;;;4.92;83.46;101566.38;3579310;40;20060;-63
2022/12/07 01:08:26;;;;;;;11.95;8.93;;;;;;;4.91;83.14;101561.94;3580996;40;20048;-63
2022/12/07 01:11:06;;;;;;;12.70;8.95;;;;;;;4.85;83.67;101566.53;3579749;40;20092;-63
2022/12/07 01:13:34;;;;;;;13.20;9.20;;;;;;;4.81;83.09;101562.19;3577997;40;20048;-63
2022/12/07 01:16:04;;;;;;;12.38;8.88;;;;;;;4.78;83.29;101562.25;3579095;40;20064;-63
2022/12/07 01:18:34;;;;;;;12.32;9.73;;;;;;;4.76;83.41;101565.91;3580979;40;20059;-64
2022/12/07 01:21:14;;;;;;;13.13;9.88;;;;;;;4.72;83.64;101562.41;3578869;40;20113;-62
2022/12/07 01:23:40;;;;;;;13.23;8.75;;;;;;;4.70;83.15;101560.72;3578534;40;20096;-65
2022/12/07 01:26:11;;;;;;;14.80;8.68;;;;;;;4.70;83.80;101564.25;3581819;40;20065;-63
2022/12/07 01:28:37;;;;;;;12.50;9.40;;;;;;;4.72;83.81;101561.53;3583211;40;20052;-63
2022/12/07 01:31:11;;;;;;;13.13;8.75;;;;;;;4.74;83.92;101563.25;3579962;40;20059;-63
2022/12/07 01:33:39;;;;;;;14.63;8.57;;;;;;;4.75;83.92;101556.13;3581966;40;20056;-63
2022/12/07 01:36:20;;;;;;;12.13;8.90;;;;;;;4.84;84.73;101559.44;3580220;40;20082;-63
2022/12/07 01:38:48;;;;;;;11.35;8.70;;;;;;;4.91;84.40;101569.94;3579950;40;20052;-63
2022/12/07 01:41:15;;;;;;;10.98;8.55;;;;;;;4.96;84.60;101565.38;3578798;40;20048;-63
2022/12/07 01:44:32;;;;;;;9.40;8.40;;;;;;;5.02;84.48;101567.88;3580824;40;20094;-63
2022/12/07 01:47:03;;;;;;;9.38;8.10;;;;;;;5.07;84.46;101576.59;3578858;40;20080;-63
2022/12/07 01:49:49;;;;;;;11.60;8.13;;;;;;;5.08;83.71;101573.91;3578860;40;20142;-63
2022/12/07 01:52:25;;;;;;;14.70;8.77;;;;;;;5.11;84.00;101565.81;3581000;40;20126;-63
2022/12/07 01:55:01;;;;;;;14.50;8.55;;;;;;;5.15;84.07;101568.41;3576346;40;20056;-63
2022/12/07 01:57:29;;;;;;;12.10;8.98;;;;;;;5.18;83.65;101563.88;3580671;40;20060;-63
2022/12/07 01:59:57;;;;;;;12.80;8.70;;;;;;;5.11;83.80;101544.50;3576577;40;20272;-63
2022/12/07 02:03:07;;;;;;;11.48;8.57;;;;;;;5.21;83.65;101553.13;3575411;40;20058;-63
2022/12/07 02:05:38;;;;;;;10.57;7.90;;;;;;;5.15;83.43;101542.63;3578938;40;20059;-63
2022/12/07 02:08:05;;;;;;;11.30;8.18;;;;;;;5.18;83.32;101550.53;3580159;40;20392;-63
2022/12/07 02:10:32;;;;;;;11.80;8.27;;;;;;;5.17;83.18;101545.22;3579511;40;20051;-63
2022/12/07 02:13:21;;;;;;;16.80;10.00;;;;;;;4.94;83.45;101509.44;3577946;40;20064;-63
2022/12/07 02:16:28;;;;;;;12.43;8.13;;;;;;;4.86;83.33;101499.00;3579275;40;20133;-63
2022/12/07 02:19:39;;;;;;;11.50;7.63;;;;;;;4.62;83.51;101457.06;3578615;40;20056;-63
2022/12/07 02:22:38;;;;;;;12.63;8.25;;;;;;;5.17;83.41;101550.56;3576017;40;20457;-63
2022/12/07 02:25:38;;;;;;;12.07;7.88;;;;;;;5.15;83.53;101558.63;3578988;40;20114;-63
2022/12/07 02:28:32;;;;;;;14.68;8.43;;;;;;;5.13;83.18;101552.44;3579194;40;20051;-63
2022/12/07 02:31:12;;;;;;;12.55;8.40;;;;;;;5.08;83.00;101551.72;3580021;40;20048;-63
2022/12/07 02:33:53;;;;;;;13.13;9.02;;;;;;;5.06;82.86;101550.88;3579240;40;20137;-63
2022/12/07 02:36:32;;;;;;;10.93;7.35;;;;;;;5.02;82.94;101551.88;3579962;40;20062;-63
2022/12/07 02:39:18;;;;;;;10.68;8.23;;;;;;;4.97;82.96;101549.31;3576758;40;20049;-63
2022/12/07 02:41:52;;;;;;;11.75;7.55;;;;;;;4.93;82.91;101542.34;3579644;40;20092;-63
2022/12/07 02:44:26;;;;;;;10.15;7.50;;;;;;;4.92;82.97;101545.06;3579789;40;20056;-63
2022/12/07 02:47:17;;;;;;;9.60;7.85;;;;;;;4.86;82.94;101548.75;3578588;40;20133;-63
2022/12/07 02:49:44;;;;;;;15.85;7.85;;;;;;;4.83;82.98;101543.50;3576594;40;20096;-63
2022/12/07 02:52:09;;;;;;;11.68;7.47;;;;;;;4.81;83.31;101548.00;3579168;40;20067;-63
2022/12/07 02:54:35;;;;;;;14.85;8.50;;;;;;;4.82;83.45;101545.31;3578639;40;20092;-63
2022/12/07 02:57:25;;;;;;;15.55;8.60;;;;;;;4.85;83.68;101539.91;3578823;40;20320;-63
2022/12/07 03:00:17;;;;;;;18.35;9.60;;;;;;;4.91;84.02;101551.28;3578939;40;20060;-65
2022/12/07 03:02:57;;;;;;;14.20;7.78;;;;;;;4.91;83.40;101544.16;3578056;40;20059;-63
2022/12/07 03:06:16;;;;;;;15.23;8.48;;;;;;;4.91;83.11;101551.28;3575567;40;20130;-63
2022/12/07 03:09:14;;;;;;;9.63;7.00;;;;;;;4.83;83.53;101549.69;3575948;40;20061;-64
2022/12/07 03:12:09;;;;;;;9.88;7.10;;;;;;;4.82;83.01;101550.63;3577999;40;20063;-63
2022/12/07 03:14:49;;;;;;;10.38;6.65;;;;;;;4.81;83.19;101548.84;3574288;40;20084;-63
2022/12/07 03:17:33;;;;;;;9.45;6.80;;;;;;;4.76;83.33;101544.59;3579213;40;20048;-63
2022/12/07 03:20:05;;;;;;;10.13;6.72;;;;;;;4.76;83.44;101545.47;3568420;40;20111;-63
2022/12/07 03:22:37;;;;;;;7.82;6.50;;;;;;;4.67;83.39;101535.03;3576940;40;20048;-63
2022/12/07 03:25:11;;;;;;;10.27;6.30;;;;;;;4.73;83.68;101552.66;3578559;40;20067;-63
2022/12/07 03:27:52;;;;;;;10.57;7.13;;;;;;;4.74;83.64;101541.09;3579945;40;20064;-63
2022/12/07 03:30:37;;;;;;;9.60;6.38;;;;;;;4.70;83.69;101537.63;3579423;40;20056;-63
2022/12/07 03:33:17;;;;;;;11.27;6.55;;;;;;;4.71;83.34;101536.72;3578749;40;20047;-63
2022/12/07 03:35:57;;;;;;;10.43;6.20;;;;;;;4.68;83.58;101530.59;3579394;40;20063;-63
2022/12/07 03:38:53;;;;;;;9.55;6.20;;;;;;;4.68;83.33;101547.44;3580434;40;20062;-63
2022/12/07 03:41:23;;;;;;;10.55;6.82;;;;;;;4.70;83.89;101547.41;3577298;40;20048;-63
2022/12/07 03:43:49;;;;;;;12.10;6.47;;;;;;;4.73;84.42;101542.88;3577245;40;20052;-63
2022/12/07 03:46:44;;;;;;;8.55;6.30;;;;;;;4.79;84.17;101545.38;3577761;40;20055;-63
2022/12/07 03:49:29;;;;;;;10.80;7.05;;;;;;;4.84;84.42;101543.44;3578977;40;20063;-64
2022/12/07 03:52:40;;;;;;;10.25;6.70;;;;;;;4.86;83.53;101546.97;3578336;40;20060;-63
2022/12/07 03:55:27;;;;;;;12.55;7.32;;;;;;;4.91;83.90;101538.81;3578060;40;20060;-63
2022/12/07 03:58:02;;;;;;;11.13;7.55;;;;;;;4.96;83.91;101546.72;3577833;40;20583;-63
2022/12/07 04:00:28;;;;;;;15.13;7.68;;;;;;;4.85;83.97;101523.91;3579609;40;20059;-63
2022/12/07 04:02:55;;;;;;;11.55;7.28;;;;;;;5.00;83.09;101543.03;3577571;40;20059;-63
2022/12/07 04:05:23;;;;;;;8.43;6.32;;;;;;;4.92;83.23;101527.28;3576435;40;20068;-63
2022/12/07 04:07:49;;;;;;;11.27;7.30;;;;;;;5.04;83.41;101539.38;3576034;40;20056;-63
2022/12/07 04:10:15;;;;;;;9.18;6.60;;;;;;;5.06;83.17;101537.56;3574857;40;20387;-63
2022/12/07 04:12:40;;;;;;;10.18;6.32;;;;;;;5.08;83.87;101535.72;3578149;40;20590;-63
2022/12/07 04:15:07;;;;;;;10.57;6.63;;;;;;;5.12;83.43;101538.25;3576089;40;20062;-63
2022/12/07 04:17:33;;;;;;;10.50;6.55;;;;;;;5.15;83.48;101537.28;3579529;40;20118;-63
2022/12/07 04:19:58;;;;;;;12.68;6.80;;;;;;;5.20;84.06;101540.72;3575524;40;20069;-61
2022/12/07 04:22:24;;;;;;;13.30;7.55;;;;;;;5.23;84.04;101537.97;3578220;40;20056;-61
2022/12/07 04:24:49;;;;;;;15.82;8.40;;;;;;;5.27;83.51;101542.28;3577548;40;20049;-62
2022/12/07 04:27:15;;;;;;;12.75;7.20;;;;;;;5.29;83.10;101544.91;3572243;40;20099;-62
2022/12/07 04:29:41;;;;;;;11.80;7.75;;;;;;;5.29;83.48;101534.22;3573487;40;20048;-62
2022/12/07 04:32:06;;;;;;;11.52;7.00;;;;;;;5.30;83.61;101542.19;3574700;40;20662;-62
2022/12/07 04:34:32;;;;;;;12.07;6.80;;;;;;;5.33;83.37;101528.78;3575824;40;20048;-62
2022/12/07 04:36:58;;;;;;;10.38;7.28;;;;;;;5.34;83.72;101527.84;3576260;40;20100;-62
2022/12/07 04:39:27;;;;;;;10.43;6.50;;;;;;;5.35;83.51;101524.25;3579626;40;20056;-62
2022/12/07 04:41:53;;;;;;;10.68;7.03;;;;;;;5.38;83.07;101527.78;3577998;40;20063;-62
2022/12/07 04:44:21;;;;;;;10.07;7.05;;;;;;;5.41;82.91;101527.69;3569018;40;20042;-62
2022/12/07 04:46:47;;;;;;;14.15;9.32;;;;;;;5.11;83.35;101477.03;3576960;40;20091;-62
2022/12/07 04:49:14;;;;;;;15.50;9.80;;;;;;;5.46;82.89;101531.09;3576496;40;20051;-62
2022/12/07 04:51:42;;;;;;;13.73;9.32;;;;;;;5.48;83.29;101526.56;3576632;40;20059;-62
2022/12/07 04:54:08;;;;;;;11.45;8.43;;;;;;;5.50;83.09;101528.28;3575846;40;20056;-62
2022/12/07 04:56:35;;;;;;;9.80;7.57;;;;;;;5.52;83.33;101536.25;3577607;40;20456;-61
2022/12/07 04:59:02;;;;;;;10.43;7.40;;;;;;;5.52;83.25;101530.94;3579427;40;20052;-62
2022/12/07 05:01:28;;;;;;;9.95;7.65;;;;;;;5.53;82.61;101528.19;3577022;40;20431;-63
2022/12/07 05:03:53;;;;;;;9.88;6.85;;;;;;;5.53;83.00;101522.00;3575721;40;20414;-63
2022/12/07 05:06:19;;;;;;;13.18;7.20;;;;;;;5.48;82.79;101514.13;3576795;40;20401;-62
2022/12/07 05:08:45;;;;;;;11.48;5.97;;;;;;;5.45;82.84;101506.19;3578731;40;20056;-62
2022/12/07 05:13:57;;;;;;;8.98;5.80;;;;;;;5.54;83.27;101515.72;3576672;40;20060;-62
2022/12/07 05:16:22;;;;;;;11.07;5.80;;;;;;;5.54;82.81;101515.72;3578327;40;20378;-63
2022/12/07 05:18:48;;;;;;;12.18;6.00;;;;;;;5.55;82.94;101514.81;3576863;40;20083;-63
2022/12/07 05:21:14;;;;;;;12.85;6.00;;;;;;;5.48;83.06;101503.44;3576939;40;20052;-63
2022/12/07 05:23:39;;;;;;;8.52;6.25;;;;;;;5.57;82.84;101518.31;3577748;40;20063;-62
2022/12/07 05:26:05;;;;;;;9.63;5.72;;;;;;;5.57;83.09;101515.63;3576073;40;20434;-62
2022/12/07 05:28:30;;;;;;;9.68;5.93;;;;;;;5.58;83.19;101520.03;3575232;40;20411;-62
2022/12/07 05:30:56;;;;;;;8.63;5.13;;;;;;;5.58;82.61;101520.03;3576835;40;20068;-63
2022/12/07 05:33:21;;;;;;;9.25;6.03;;;;;;;5.57;82.54;101518.31;3576139;40;20431;-63
2022/12/07 05:35:47;;;;;;;9.40;5.60;;;;;;;5.51;82.19;101513.16;3578756;40;20051;-63
2022/12/07 05:38:13;;;;;;;9.50;5.93;;;;;;;5.53;82.12;101514.00;3575351;40;20048;-62
2022/12/07 05:40:38;;;;;;;9.30;5.68;;;;;;;5.49;81.71;101515.00;3579084;40;20044;-63
2022/12/07 05:43:04;;;;;;;11.10;5.30;;;;;;;5.45;81.46;101508.00;3578914;40;20044;-63
2022/12/07 05:45:29;;;;;;;8.55;5.70;;;;;;;5.42;81.16;101508.09;3573760;40;20092;-63
2022/12/07 05:47:55;;;;;;;7.28;6.47;;;;;;;5.32;80.96;101496.81;3575768;40;20064;-63
2022/12/07 05:50:21;;;;;;;9.15;6.50;;;;;;;5.27;81.13;101502.31;3577606;40;20118;-63
2022/12/07 05:52:46;;;;;;;9.75;6.22;;;;;;;5.20;81.22;101511.41;3576071;40;20056;-63
2022/12/07 05:55:12;;;;;;;8.63;6.80;;;;;;;5.15;81.14;101509.78;3575956;40;20319;-63
2022/12/07 05:57:37;;;;;;;10.98;7.97;;;;;;;5.10;81.17;101507.22;3575628;40;20064;-63
2022/12/07 06:00:05;;;;;;;10.05;7.00;;;;;;;5.01;81.67;101504.81;3575271;40;20044;-63
2022/12/07 06:02:30;;;;;;;7.30;5.70;;;;;;;4.96;81.74;101499.63;3576968;40;20093;-61
2022/12/07 06:04:56;;;;;;;11.63;6.07;;;;;;;4.91;81.44;101511.31;3576496;40;20072;-61
2022/12/07 06:07:22;;;;;;;11.88;6.18;;;;;;;4.84;81.56;101503.50;3576877;40;20063;-61
2022/12/07 06:09:47;;;;;;;9.60;6.40;;;;;;;4.79;81.81;101502.78;3574842;40;20068;-62
2022/12/07 06:14:58;;;;;;;9.32;5.28;;;;;;;4.71;82.62;101510.06;3575281;40;20331;-62
2022/12/07 06:17:23;;;;;;;8.20;5.72;;;;;;;4.69;82.12;101511.88;3575076;40;20068;-64
2022/12/07 06:19:49;;;;;;;8.35;5.07;;;;;;;4.55;82.32;101496.28;3576184;40;20303;-62
2022/12/07 06:22:15;;;;;;;12.07;5.07;;;;;;;4.62;82.94;101515.63;3575739;40;20076;-62
2022/12/07 06:24:42;;;;;;;7.35;4.95;;;;;;;4.55;82.64;101509.59;3576265;40;20268;-63
2022/12/07 06:27:09;;;;;;;8.85;5.15;;;;;;;4.54;82.65;101514.97;3577505;40;20052;-62
2022/12/07 06:29:34;;;;;;;9.85;4.88;;;;;;;4.50;83.18;101510.63;3573831;40;20051;-62
2022/12/07 06:32:00;;;;;;;7.38;5.18;;;;;;;4.50;82.46;101510.63;3575563;40;20453;-62
2022/12/07 06:34:27;;;;;;;8.70;4.90;;;;;;;4.13;82.73;101458.34;3576143;40;20056;-62
2022/12/07 06:36:54;;;;;;;8.85;5.55;;;;;;;4.45;82.84;101513.41;3575562;40;20146;-63
2022/12/07 06:39:27;;;;;;;8.30;5.72;;;;;;;4.45;83.03;101512.56;3577128;40;20056;-63
2022/12/07 06:41:53;;;;;;;9.98;5.47;;;;;;;4.46;83.21;101514.28;3576220;40;20071;-62
2022/12/07 06:44:21;;;;;;;8.27;5.18;;;;;;;4.47;83.19;101518.69;3577570;40;20056;-63
2022/12/07 06:46:48;;;;;;;9.10;5.05;;;;;;;4.32;83.70;101491.56;3576614;40;20081;-63
2022/12/07 06:49:13;;;;;;;11.13;5.25;;;;;;;4.51;83.38;101518.59;3575002;40;20494;-63
2022/12/07 06:51:41;;;;;;;9.52;6.07;;;;;;;4.52;82.93;101519.47;3576964;40;20138;-62
2022/12/07 06:54:12;;;;;;;10.00;5.72;;;;;;;4.33;83.06;101477.34;3575381;40;20226;-62
2022/12/07 06:56:38;;;;;;;13.57;5.13;;;;;;;4.52;82.89;101514.13;3574612;40;20141;-62
2022/12/07 06:59:06;;;;;;;8.50;4.97;;;;;;;4.52;83.41;101511.47;3577315;40;20104;-63
2022/12/07 07:01:33;;;;;;;10.70;5.05;;;;;;;4.53;83.56;101522.06;3576011;40;20060;-62
2022/12/07 07:03:59;;;;;;;6.80;5.07;;;;;;;4.50;83.44;101511.50;3576093;40;20134;-62
2022/12/07 07:06:25;;;;;;;9.60;5.07;;;;;;;4.52;83.50;101511.47;3577306;40;20104;-62
2022/12/07 07:08:51;;;;;;;7.20;4.88;;;;;;;4.48;83.09;101508.03;3579141;40;20059;-63
2022/12/07 07:11:17;;;;;;;9.95;5.53;;;;;;;4.45;83.04;101512.56;3577339;40;20056;-62
2022/12/07 07:13:44;;;;;;;9.90;4.80;;;;;;;4.47;82.95;101516.03;3574990;40;20098;-63
2022/12/07 07:16:10;;;;;;;12.60;5.60;;;;;;;4.47;82.89;101521.34;3576684;40;20378;-62
2022/12/07 07:18:36;;;;;;;8.52;4.85;;;;;;;4.47;83.38;101521.34;3573437;40;21559;-63
2022/12/07 07:21:02;;;;;;;11.52;5.72;;;;;;;4.48;83.36;101523.13;3576754;40;20347;-63
2022/12/07 07:23:29;;;;;;;11.32;5.25;;;;;;;4.49;83.04;101522.19;3572342;40;20138;-64
2022/12/07 07:25:54;;;;;;;10.35;5.85;;;;;;;4.50;83.62;101521.28;3574576;40;20142;-63
2022/12/07 07:28:20;;;;;;;8.52;5.60;;;;;;;4.46;83.48;101514.28;3576273;40;20072;-64
2022/12/07 07:30:46;;;;;;;8.85;5.53;;;;;;;4.49;83.35;101517.75;3576524;40;20480;-64
2022/12/07 07:33:12;;;;;;;6.40;5.18;;;;;;;4.53;82.99;101523.84;3575431;40;20088;-64
2022/12/07 07:35:39;;;;;;;11.25;5.18;;;;;;;4.54;83.01;101522.97;3577790;40;20056;-64
2022/12/07 07:38:05;;;;;;;10.55;5.20;;;;;;;4.55;82.99;101527.38;3575970;40;20048;-64
2022/12/07 07:40:31;;;;;;;10.68;5.20;;;;;;;4.57;82.79;101522.91;3576565;40;20055;-64
2022/12/07 07:42:58;;;;;;;13.18;5.95;;;;;;;4.60;82.85;101525.47;3577271;40;20353;-64
2022/12/07 07:45:26;;;;;;;8.65;5.57;;;;;;;4.62;82.34;101526.28;3575345;40;20064;-63
2022/12/07 07:47:52;;;;;;;10.10;5.47;;;;;;;4.63;82.37;101533.34;3576890;40;20060;-63
2022/12/07 07:50:19;;;;;;;9.18;4.97;;;;;;;4.63;82.00;101528.03;3565495;40;20109;-63
2022/12/07 07:52:45;;;;;;;8.02;4.93;;;;;;;4.62;81.97;101527.16;3577581;40;20044;-63
2022/12/07 07:55:11;;;;;;;10.52;5.95;;;;;;;4.54;82.11;101523.84;3575983;40;20414;-63
2022/12/07 07:57:39;;;;;;;7.78;5.00;;;;;;;4.61;81.87;101530.75;3577002;40;20117;-63
2022/12/07 08:00:16;;;;;;;13.93;5.15;;;;;;;4.61;82.02;101529.88;3566094;40;20048;-63
2022/12/07 08:02:43;;;;;;;9.85;5.20;;;;;;;4.61;81.88;101528.09;3576949;40;20044;-63
2022/12/07 08:05:11;;;;;;;11.07;5.30;;;;;;;4.62;82.11;101526.28;3575387;40;20048;-64
2022/12/07 08:07:37;;;;;;;11.63;5.40;;;;;;;4.34;81.63;101484.41;3577392;40;20060;-63
2022/12/07 08:10:03;;;;;;;6.10;4.90;;;;;;;4.62;82.11;101534.28;3579643;40;20356;-63
2022/12/07 08:12:29;;;;;;;32.53;17.42;;;;;;;4.61;82.03;101537.88;3573415;40;20047;-64
2022/12/07 08:14:55;;;;;;;15.50;7.70;;;;;;;4.55;82.25;101525.56;3576660;40;20068;-63
2022/12/07 08:17:20;;;;;;;16.13;7.63;;;;;;;4.62;82.11;101534.28;3578248;40;20067;-63
2022/12/07 08:19:46;;;;;;;8.23;5.38;;;;;;;4.61;81.34;101537.88;3578249;40;20066;-63
2022/12/07 08:22:11;;;;;;;7.88;5.15;;;;;;;4.56;81.04;101535.31;3579241;40;20062;-63
2022/12/07 08:24:37;;;;;;;10.25;4.88;;;;;;;4.52;81.56;101538.09;3572020;40;20302;-63
2022/12/07 08:27:03;;;;;;;9.95;5.60;;;;;;;4.61;81.88;101545.84;3577500;40;20075;-63
2022/12/07 08:29:29;;;;;;;13.30;5.60;;;;;;;4.62;81.92;101547.59;3578999;40;20053;-63
2022/12/07 08:31:55;;;;;;;10.52;5.32;;;;;;;4.66;82.00;101551.91;3579544;40;20345;-63
2022/12/07 08:34:20;;;;;;;9.32;5.45;;;;;;;4.72;81.75;101557.09;3580978;40;20104;-62
2022/12/07 08:36:46;;;;;;;9.52;5.13;;;;;;;4.78;82.10;101558.72;3577853;40;20070;-63
2022/12/07 08:39:12;;;;;;;10.52;5.45;;;;;;;4.83;81.67;101562.16;3577810;40;20059;-63
2022/12/07 08:41:38;;;;;;;8.68;5.75;;;;;;;4.92;82.14;101566.38;3579150;40;20052;-62
2022/12/07 08:44:04;;;;;;;9.00;5.00;;;;;;;4.96;81.23;101552.03;3580133;40;20104;-62
2022/12/07 08:46:46;;;;;;;10.18;5.15;;;;;;;5.03;81.40;101558.94;3580542;40;20294;-62
2022/12/07 08:49:32;;;;;;;9.35;4.72;;;;;;;5.08;81.67;101551.72;3577307;40;20071;-62
2022/12/07 08:51:58;;;;;;;10.18;4.88;;;;;;;5.23;81.57;101561.97;3578740;40;20138;-63
2022/12/07 08:54:24;;;;;;;9.73;5.35;;;;;;;5.31;82.06;101554.59;3576865;40;22311;-63
2022/12/07 08:56:53;;;;;;;6.82;4.40;;;;;;;5.41;81.04;101557.00;3579825;40;20426;-62
2022/12/07 08:59:20;;;;;;;8.65;4.55;;;;;;;5.49;81.23;101552.34;3579035;40;20399;-63
2022/12/07 09:01:46;;;;;;;9.55;4.47;;;;;;;5.56;80.47;101556.56;3580501;40;20053;-63
2022/12/07 09:04:12;;;;;;;9.45;4.40;;;;;;;5.61;80.92;101551.09;3578538;40;20429;-63
2022/12/07 09:06:38;;;;;;;9.27;4.85;;;;;;;5.67;80.96;101546.44;3580947;40;20546;-63
2022/12/07 09:09:04;;;;;;;10.80;4.60;;;;;;;5.71;80.06;101548.13;3576375;40;20591;-63
2022/12/07 09:11:30;;;;;;;7.72;4.88;;;;;;;5.69;80.19;101539.28;3576067;40;20065;-62
2022/12/07 09:13:56;;;;;;;9.52;4.53;;;;;;;5.59;80.62;101508.47;3581014;40;20129;-63
2022/12/07 09:16:21;;;;;;;8.20;4.15;;;;;;;5.85;80.13;101545.03;3578391;40;20068;-63
2022/12/07 09:18:47;;;;;;;5.78;4.18;;;;;;;5.89;79.90;101553.81;3579234;40;20068;-63
2022/12/07 09:21:13;;;;;;;5.85;4.03;;;;;;;5.94;80.07;101543.91;3577250;40;20398;-64
2022/12/07 09:23:38;;;;;;;7.53;3.75;;;;;;;6.01;80.19;101545.44;3576094;40;20067;-62
2022/12/07 09:26:05;;;;;;;9.00;4.30;;;;;;;6.07;79.94;101549.72;3579758;40;20055;-62
2022/12/07 09:28:31;;;;;;;7.50;4.05;;;;;;;6.09;80.03;101539.88;3579646;40;20052;-62
2022/12/07 09:30:57;;;;;;;9.35;4.70;;;;;;;6.15;79.47;101542.34;3584704;40;20060;-62
2022/12/07 09:33:22;;;;;;;11.77;4.53;;;;;;;6.18;78.74;101547.56;3578939;40;20493;-63
2022/12/07 09:35:51;;;;;;;8.45;4.38;;;;;;;6.15;78.40;101548.56;3577536;40;20140;-63
2022/12/07 09:38:19;;;;;;;8.00;3.72;;;;;;;6.10;78.66;101550.50;3578059;40;20052;-63
2022/12/07 09:40:46;;;;;;;8.73;4.43;;;;;;;6.03;78.38;101554.28;3579531;40;20961;-63
2022/12/07 09:43:25;;;;;;;8.38;4.15;;;;;;;5.96;78.43;101552.72;3578415;40;20067;-63
2022/12/07 09:45:56;;;;;;;8.32;4.50;;;;;;;5.92;78.96;101548.38;3578087;40;20055;-63
2022/12/07 09:48:32;;;;;;;7.68;4.88;;;;;;;5.70;79.15;101501.00;3579257;40;20644;-63
2022/12/07 09:51:01;;;;;;;11.20;4.50;;;;;;;6.06;79.00;101548.88;3579309;40;20273;-63
2022/12/07 09:53:38;;;;;;;7.68;4.03;;;;;;;6.05;78.44;101544.44;3579128;40;20126;-63
2022/12/07 09:56:05;;;;;;;10.18;4.20;;;;;;;6.23;79.62;101549.19;3577716;40;20396;-63
2022/12/07 09:58:33;;;;;;;6.63;4.13;;;;;;;6.28;78.98;101514.34;3577108;40;20311;-63
2022/12/07 10:01:21;;;;;;;5.85;4.03;;;;;;;6.76;78.89;101542.13;3577630;40;20075;-63
2022/12/07 10:03:58;;;;;;;6.78;3.92;;;;;;;7.10;77.47;101534.63;3580056;40;20372;-63
2022/12/07 10:06:24;;;;;;;8.05;3.90;;;;;;;7.39;75.59;101541.63;3579627;40;20049;-62
2022/12/07 10:08:49;;;;;;;7.53;3.90;;;;;;;7.55;73.56;101535.66;3578664;40;20059;-63
2022/12/07 10:11:16;;;;;;;6.35;3.05;;;;;;;7.55;73.98;101535.66;3575884;40;20071;-63
2022/12/07 10:13:50;;;;;;;6.45;3.90;;;;;;;7.51;73.63;101531.38;3575637;40;20056;-62
2022/12/07 10:16:26;;;;;;;5.93;3.72;;;;;;;7.45;73.50;101521.75;3576221;40;20099;-63
2022/12/07 10:18:52;;;;;;;12.52;3.78;;;;;;;7.49;74.74;101520.75;3576547;40;20084;-64
2022/12/07 10:21:24;;;;;;;10.75;3.63;;;;;;;7.73;75.40;101518.03;3575491;40;20072;-64
2022/12/07 10:24:19;;;;;;;8.32;4.93;;;;;;;8.12;74.30;101524.50;3576626;40;20092;-64
2022/12/07 10:26:47;;;;;;;7.00;3.80;;;;;;;8.50;73.28;101515.84;3579156;40;20052;-64
2022/12/07 10:29:23;;;;;;;7.53;3.33;;;;;;;8.67;71.97;101509.78;3576446;40;20056;-64
2022/12/07 10:31:59;;;;;;;8.68;3.97;;;;;;;8.69;70.60;101511.47;3576222;40;20062;-64
2022/12/07 10:34:37;;;;;;;8.85;3.10;;;;;;;8.71;70.33;101508.69;3574895;40;20045;-64
2022/12/07 10:37:20;;;;;;;5.97;2.90;;;;;;;8.66;70.63;101489.25;3576495;40;20141;-64
2022/12/07 10:39:54;;;;;;;6.45;2.70;;;;;;;8.62;69.65;101503.72;3575198;40;20138;-64
2022/12/07 10:42:24;;;;;;;7.65;3.10;;;;;;;8.50;70.56;101506.00;3573299;40;20055;-64
2022/12/07 10:45:09;;;;;;;7.68;2.90;;;;;;;8.42;70.68;101502.78;3573128;40;20124;-64
2022/12/07 10:47:59;;;;;;;9.88;2.65;;;;;;;8.37;70.66;101494.00;3577822;40;20067;-62
2022/12/07 10:50:51;;;;;;;7.95;3.25;;;;;;;8.62;70.53;101495.69;3578866;40;20382;-64
2022/12/07 10:53:52;;;;;;;6.03;2.70;;;;;;;8.93;70.04;101493.41;3575135;40;20060;-64
2022/12/07 10:56:54;;;;;;;7.85;2.65;;;;;;;9.32;68.33;101489.00;3575998;40;20668;-62
2022/12/07 10:59:44;;;;;;;6.43;2.60;;;;;;;9.44;67.89;101488.44;3576482;40;20411;-62
2022/12/07 11:02:49;;;;;;;6.60;2.35;;;;;;;9.51;67.18;101484.53;3577805;40;20303;-63
2022/12/07 11:05:29;;;;;;;13.23;3.05;;;;;;;9.57;67.33;101486.06;3576162;40;20062;-63
2022/12/07 11:08:17;;;;;;;9.55;2.58;;;;;;;9.52;66.83;101465.69;3577517;40;20114;-63
2022/12/07 11:10:55;;;;;;;6.85;2.40;;;;;;;9.55;66.65;101475.41;3576525;40;20060;-63
2022/12/07 11:13:53;;;;;;;8.93;3.53;;;;;;;9.44;67.44;101467.84;3575817;40;20048;-63
2022/12/07 11:17:10;;;;;;;7.80;3.60;;;;;;;9.34;67.62;101477.25;3576223;40;20377;-64
2022/12/07 11:20:19;;;;;;;8.77;2.65;;;;;;;9.18;68.55;101468.19;3566904;40;20052;-63
2022/12/07 11:23:18;;;;;;;6.72;2.60;;;;;;;9.03;68.94;101462.56;3574894;40;20047;-63
2022/12/07 11:25:54;;;;;;;6.45;2.90;;;;;;;9.00;68.65;101464.50;3576077;40;20149;-63
2022/12/07 11:28:39;;;;;;;5.50;2.75;;;;;;;8.94;69.57;101454.94;3575946;40;20060;-63
2022/12/07 11:31:37;;;;;;;4.40;2.60;;;;;;;8.94;69.32;101457.59;3574109;40;20062;-63
2022/12/07 11:34:18;;;;;;;8.15;2.90;;;;;;;8.91;70.04;101459.56;3575288;40;20310;-63
2022/12/07 11:36:52;;;;;;;6.47;2.90;;;;;;;8.85;70.05;101452.69;3573445;40;20410;-63
2022/12/07 11:39:35;;;;;;;6.40;3.00;;;;;;;8.83;70.41;101444.69;3575609;40;20052;-65
2022/12/07 11:42:14;;;;;;;8.38;2.92;;;;;;;8.82;70.47;101444.78;3574591;40;20052;-62
2022/12/07 11:44:42;;;;;;;7.63;2.70;;;;;;;8.82;70.29;101447.47;3576103;40;20057;-63
2022/12/07 11:47:43;;;;;;;14.82;6.13;;;;;;;8.65;70.70;101428.56;3575661;40;20133;-63
2022/12/07 11:50:47;;;;;;;7.70;2.85;;;;;;;8.69;70.72;101446.25;3571820;40;20052;-63
2022/12/07 11:53:38;;;;;;;7.82;2.60;;;;;;;8.59;70.19;101440.41;3565504;40;20060;-63
2022/12/07 11:56:13;;;;;;;7.68;2.65;;;;;;;8.53;70.93;101438.91;3574631;40;20296;-63
2022/12/07 11:59:17;;;;;;;6.47;2.50;;;;;;;8.48;71.19;101437.34;3574582;40;20061;-63
2022/12/07 12:02:13;;;;;;;7.50;2.58;;;;;;;8.41;71.87;101433.19;3574586;40;20102;-63